Weems, Virginia
Current Conditions -  °F | °C
As of 12:15 AM on Sunday 26 Oct 2014 (Local Time) from KW75 Reporting Station
Clear Clear  
Wind Chill: 58°   Ceiling: Unl
Heat Index: 58°   Visibility: 10mi
Dew Point: 45°   Wind: 3mph
Humidity: 62%   Direction: 230°SW
Pressure: 29.74"   Gusts: NA
Location:  37.65°N, 76.44°W
Report Text: KW75 260415Z AUTO 23003KT 10SM CLR 15/07 A2974 RMK AO1 T01460074
Loading
Personal Weather Stations






























Interactive Weather Map New forecast layout! Learn more

10-Day Weather Forecast

Advertisements
Track Severe Weather on mobile